createdAt,value
2017-03-04T00:00:51.757Z,68.08
2017-03-04T00:02:00.658Z,68.08
2017-03-04T00:03:09.573Z,68.24
2017-03-04T00:04:18.475Z,68.24
2017-03-04T00:05:27.798Z,68.63
2017-03-04T00:06:36.712Z,68.33
2017-03-04T00:07:45.629Z,68.53
2017-03-04T00:08:54.530Z,68.15
2017-03-04T00:10:03.412Z,68.24
2017-03-04T00:11:12.320Z,68.63
2017-03-04T00:12:21.618Z,68.24
2017-03-04T00:13:30.507Z,68.24
2017-03-04T00:14:39.421Z,68.24
2017-03-04T00:15:48.309Z,68.24
2017-03-04T00:16:57.210Z,68.33
2017-03-04T00:18:06.140Z,68.33
2017-03-04T00:19:15.058Z,68.24
2017-03-04T00:20:23.945Z,68.15
2017-03-04T00:21:32.841Z,67.95
2017-03-04T00:22:41.754Z,68.18
2017-03-04T00:23:50.654Z,68.33
2017-03-04T00:24:59.549Z,68.63
2017-03-04T00:26:08.851Z,68.43
2017-03-04T00:27:17.758Z,68.63
2017-03-04T00:28:26.667Z,68.53
2017-03-04T00:29:35.567Z,65.05
2017-03-04T00:30:44.452Z,60.27
2017-03-04T00:31:53.743Z,58.21
2017-03-04T00:33:02.664Z,57.73
2017-03-04T00:34:11.572Z,57.31
2017-03-04T00:35:20.476Z,56.22
2017-03-04T00:36:29.367Z,56.03
2017-03-04T00:37:38.265Z,56.13
2017-03-04T00:38:47.170Z,55.45
2017-03-04T00:39:56.051Z,55.52
2017-03-04T00:41:04.969Z,54.65
2017-03-04T00:42:13.862Z,54.75
2017-03-04T00:43:22.779Z,53.97
2017-03-04T00:44:31.661Z,53.47
2017-03-04T00:45:40.589Z,53.85
2017-03-04T00:46:49.509Z,53.08
2017-03-04T00:47:58.391Z,52.98
2017-03-04T00:49:07.280Z,52.89
2017-03-04T00:50:16.168Z,52.79
2017-03-04T00:51:25.243Z,51.32
2017-03-04T00:52:34.152Z,51.61
2017-03-04T00:53:43.043Z,51.41
2017-03-04T00:54:51.961Z,51.8
2017-03-04T00:56:00.875Z,51.7
2017-03-04T00:57:09.759Z,51.51
2017-03-04T00:58:18.658Z,51.68
2017-03-04T00:59:27.543Z,51.48
2017-03-04T01:00:36.441Z,50.88
2017-03-04T01:01:45.356Z,50.49
2017-03-04T01:02:54.268Z,50.88
2017-03-04T01:04:03.579Z,50.98
2017-03-04T01:05:12.476Z,51.36
2017-03-04T01:06:21.372Z,51.36
2017-03-04T01:07:30.278Z,51.36
2017-03-04T01:08:39.210Z,51.17
2017-03-04T01:09:48.129Z,51.26
2017-03-04T01:10:57.060Z,51.17
2017-03-04T01:12:05.982Z,50.76
2017-03-04T01:13:14.891Z,50.76
2017-03-04T01:14:23.786Z,50.73
2017-03-04T01:15:32.696Z,50.85
2017-03-04T01:16:41.634Z,50.95
2017-03-04T01:17:50.574Z,50.54
2017-03-04T01:18:59.476Z,50.35
2017-03-04T01:20:08.379Z,50.83
2017-03-04T01:21:17.292Z,50.63
2017-03-04T01:22:26.225Z,50.83
2017-03-04T01:23:35.507Z,50.83
2017-03-04T01:24:44.395Z,50.93
2017-03-04T01:25:53.272Z,50.73
2017-03-04T01:27:02.150Z,50.71
2017-03-04T01:28:11.046Z,50.32
2017-03-04T01:29:20.363Z,50.99
2017-03-04T01:30:29.241Z,50.51
2017-03-04T01:31:38.116Z,50.71
2017-03-04T01:32:47.008Z,50.32
2017-03-04T01:33:55.921Z,50.81
2017-03-04T01:35:05.226Z,50.81
2017-03-04T01:36:14.138Z,50.81
2017-03-04T01:37:23.045Z,50.9
2017-03-04T01:38:31.947Z,50.68
2017-03-04T01:39:40.854Z,50.78
2017-03-04T01:40:49.753Z,50.2
2017-03-04T01:41:59.043Z,50.2
2017-03-04T01:43:07.948Z,50.68
2017-03-04T01:44:16.850Z,50.49
2017-03-04T01:45:26.175Z,50.4
2017-03-04T01:46:35.079Z,50.4
2017-03-04T01:47:43.974Z,50.4
2017-03-04T01:48:52.897Z,50.4
2017-03-04T01:50:02.183Z,50.66
2017-03-04T01:51:11.080Z,50.66
2017-03-04T01:52:19.997Z,50.66
2017-03-04T01:53:28.914Z,50.37
2017-03-04T01:54:37.799Z,50.37
2017-03-04T01:55:47.138Z,50.66
2017-03-04T01:56:56.041Z,50.37
2017-03-04T01:58:04.956Z,50.27
2017-03-04T01:59:13.835Z,50.15
2017-03-04T02:00:22.743Z,50.44
2017-03-04T02:01:31.628Z,50.92
2017-03-04T02:02:40.516Z,50.82
2017-03-04T02:03:49.422Z,50.44
2017-03-04T02:04:58.320Z,50.25
2017-03-04T02:06:07.209Z,50.34
2017-03-04T02:07:16.100Z,50.44
2017-03-04T02:08:25.004Z,50.44
2017-03-04T02:09:33.923Z,50.34
2017-03-04T02:10:42.847Z,50.73
2017-03-04T02:11:51.716Z,50.73
2017-03-04T02:13:00.619Z,50.25
2017-03-04T02:14:09.938Z,50.61
2017-03-04T02:15:18.833Z,50.73
2017-03-04T02:16:27.736Z,50.51
2017-03-04T02:17:36.652Z,50.23
2017-03-04T02:18:45.553Z,50.8
2017-03-04T02:19:54.470Z,50.7
2017-03-04T02:21:03.376Z,50.61
2017-03-04T02:22:12.275Z,50.99
2017-03-04T02:23:21.586Z,50.9
2017-03-04T02:24:30.501Z,50.7
2017-03-04T02:25:39.448Z,50.23
2017-03-04T02:26:48.763Z,50.61
2017-03-04T02:27:57.647Z,50.61
2017-03-04T02:29:06.556Z,50.7
2017-03-04T02:30:15.852Z,50.8
2017-03-04T02:31:24.742Z,51.18
2017-03-04T02:32:33.665Z,51.18
2017-03-04T02:33:42.975Z,50.9
2017-03-04T02:34:51.880Z,51.28
2017-03-04T02:36:00.784Z,51.16
2017-03-04T02:37:09.694Z,51.47
2017-03-04T02:38:18.588Z,51.37
2017-03-04T02:39:27.506Z,51.28
2017-03-04T02:40:36.402Z,51.47
2017-03-04T02:41:45.309Z,51.25
2017-03-04T02:42:54.221Z,51.25
2017-03-04T02:44:03.134Z,51.45
2017-03-04T02:45:12.054Z,51.25
2017-03-04T02:46:20.943Z,51.64
2017-03-04T02:47:29.862Z,51.45
2017-03-04T02:48:39.174Z,51.45
2017-03-04T02:49:48.086Z,51.25
2017-03-04T02:50:56.963Z,51.25
2017-03-04T02:52:05.852Z,51.25
2017-03-04T02:53:14.773Z,51.54
2017-03-04T02:54:24.097Z,51.25
2017-03-04T02:55:33.025Z,51.25
2017-03-04T02:56:41.937Z,51.54
2017-03-04T02:57:50.826Z,51.45
2017-03-04T02:58:59.704Z,51.61
2017-03-04T03:00:08.586Z,51.54
2017-03-04T03:01:17.909Z,51.32
2017-03-04T03:02:26.811Z,51.64
2017-03-04T03:03:35.727Z,51.42
2017-03-04T03:04:44.667Z,51.83
2017-03-04T03:05:53.955Z,51.25
2017-03-04T03:07:02.888Z,51.32
2017-03-04T03:08:11.832Z,51.06
2017-03-04T03:09:20.759Z,51.42
2017-03-04T03:10:29.674Z,51.32
2017-03-04T03:11:38.995Z,51.14
2017-03-04T03:12:47.885Z,50.46
2017-03-04T03:13:56.777Z,51.23
2017-03-04T03:15:06.101Z,51.16
2017-03-04T03:16:14.978Z,51.42
2017-03-04T03:17:23.866Z,51.32
2017-03-04T03:18:32.787Z,51.23
2017-03-04T03:19:41.686Z,51.51
2017-03-04T03:20:50.580Z,51.51
2017-03-04T03:21:59.875Z,51.71
2017-03-04T03:23:08.772Z,51.71
2017-03-04T03:24:17.684Z,51.23
2017-03-04T03:25:26.595Z,51.61
2017-03-04T03:26:35.520Z,51.61
2017-03-04T03:27:44.401Z,51.32
2017-03-04T03:28:53.291Z,51.71
2017-03-04T03:30:02.178Z,51.51
2017-03-04T03:31:11.472Z,51.23
2017-03-04T03:32:20.764Z,51.14
2017-03-04T03:33:29.651Z,51.14
2017-03-04T03:34:38.557Z,51.71
2017-03-04T03:35:47.467Z,51.61
2017-03-04T03:36:56.376Z,51.42
2017-03-04T03:38:05.286Z,51.42
2017-03-04T03:39:14.243Z,51.23
2017-03-04T03:40:23.162Z,51.23
2017-03-04T03:41:32.054Z,51.23
2017-03-04T03:42:41.363Z,51.14
2017-03-04T03:43:50.262Z,50.94
2017-03-04T03:44:59.161Z,51.23
2017-03-04T03:46:08.044Z,51.32
2017-03-04T03:47:16.957Z,51.23
2017-03-04T03:48:25.856Z,51.71
2017-03-04T03:49:34.750Z,51.32
2017-03-04T03:50:43.657Z,51.59
2017-03-04T03:51:52.539Z,51.68
2017-03-04T03:53:01.458Z,51.68
2017-03-04T03:54:10.364Z,51.68
2017-03-04T03:55:19.279Z,51.97
2017-03-04T03:56:28.186Z,51.78
2017-03-04T03:57:37.094Z,51.78
2017-03-04T03:58:45.976Z,51.68
2017-03-04T03:59:54.859Z,51.87
2017-03-04T04:01:03.749Z,52.16
2017-03-04T04:02:12.627Z,51.97
2017-03-04T04:03:21.516Z,52.26
2017-03-04T04:04:30.447Z,51.78
2017-03-04T04:05:39.353Z,52.26
2017-03-04T04:06:48.239Z,52.55
2017-03-04T04:07:57.123Z,52.45
2017-03-04T04:09:06.432Z,52.26
2017-03-04T04:10:15.332Z,52.45
2017-03-04T04:11:24.651Z,51.68
2017-03-04T04:12:33.533Z,51.78
2017-03-04T04:13:42.445Z,52.26
2017-03-04T04:14:51.332Z,51.87
2017-03-04T04:16:00.229Z,51.59
2017-03-04T04:17:09.103Z,51.4
2017-03-04T04:18:17.999Z,51.59
2017-03-04T04:19:26.914Z,51.2
2017-03-04T04:20:35.809Z,51.4
2017-03-04T04:21:44.704Z,51.1
2017-03-04T04:22:53.623Z,51.32
2017-03-04T04:24:02.500Z,51.2
2017-03-04T04:25:11.398Z,51.59
2017-03-04T04:26:20.310Z,51.3
2017-03-04T04:27:29.195Z,51.3
2017-03-04T04:28:38.068Z,51.59
2017-03-04T04:29:46.952Z,51.3
2017-03-04T04:30:55.851Z,52.26
2017-03-04T04:32:04.730Z,51.68
2017-03-04T04:33:13.615Z,51.97
2017-03-04T04:34:22.527Z,52.07
2017-03-04T04:35:31.405Z,52.55
2017-03-04T04:36:40.308Z,52.16
2017-03-04T04:37:49.208Z,52.45
2017-03-04T04:38:58.116Z,52.26
2017-03-04T04:40:07.018Z,52.16
2017-03-04T04:41:16.312Z,52.26
2017-03-04T04:42:25.188Z,52.16
2017-03-04T04:43:34.086Z,52.62
2017-03-04T04:44:43.009Z,52.42
2017-03-04T04:45:51.894Z,52.23
2017-03-04T04:47:00.794Z,52.23
2017-03-04T04:48:09.703Z,52.33
2017-03-04T04:49:18.592Z,52.33
2017-03-04T04:50:27.501Z,52.33
2017-03-04T04:51:36.434Z,52.42
2017-03-04T04:52:45.355Z,52.33
2017-03-04T04:53:54.257Z,52.52
2017-03-04T04:55:03.171Z,52.71
2017-03-04T04:56:12.484Z,52.52
2017-03-04T04:57:21.387Z,52.52
2017-03-04T04:58:30.274Z,52.91
2017-03-04T04:59:39.170Z,52.71
2017-03-04T05:00:48.050Z,52.62
2017-03-04T05:01:57.341Z,52.81
2017-03-04T05:03:06.221Z,52.23
2017-03-04T05:04:15.151Z,52.23
2017-03-04T05:05:24.055Z,52.33
2017-03-04T05:06:32.953Z,52.33
2017-03-04T05:07:41.833Z,52.33
2017-03-04T05:08:50.745Z,52.42
2017-03-04T05:10:00.067Z,52.42
2017-03-04T05:11:09.348Z,52.52
2017-03-04T05:12:18.252Z,52.62
2017-03-04T05:13:27.148Z,52.52
2017-03-04T05:14:36.071Z,52.42
2017-03-04T05:15:44.982Z,52.52
2017-03-04T05:16:53.865Z,52.52
2017-03-04T05:18:02.780Z,52.23
2017-03-04T05:19:11.666Z,52.42
2017-03-04T05:20:20.575Z,52.23
2017-03-04T05:21:29.459Z,52.23
2017-03-04T05:22:38.349Z,52.42
2017-03-04T05:23:47.231Z,52.33
2017-03-04T05:24:56.527Z,52.33
2017-03-04T05:26:05.413Z,52.62
2017-03-04T05:27:14.308Z,52.33
2017-03-04T05:28:23.178Z,52.42
2017-03-04T05:29:32.473Z,52.33
2017-03-04T05:30:41.370Z,52.42
2017-03-04T05:31:50.283Z,52.33
2017-03-04T05:32:59.202Z,52.42
2017-03-04T05:34:08.110Z,52.23
2017-03-04T05:35:17.023Z,52.14
2017-03-04T05:36:26.303Z,52.42
2017-03-04T05:37:35.189Z,52.81
2017-03-04T05:38:44.099Z,52.52
2017-03-04T05:39:52.977Z,52.71
2017-03-04T05:41:01.908Z,52.81
2017-03-04T05:42:10.816Z,52.78
2017-03-04T05:43:19.706Z,52.87
2017-03-04T05:44:28.598Z,52.71
2017-03-04T05:45:37.511Z,52.42
2017-03-04T05:46:46.394Z,52.69
2017-03-04T05:47:55.284Z,52.4
2017-03-04T05:49:04.182Z,52.91
2017-03-04T05:50:13.078Z,52.81
2017-03-04T05:51:22.005Z,52.62
2017-03-04T05:52:30.895Z,52.59
2017-03-04T05:53:40.222Z,52.91
2017-03-04T05:54:49.125Z,52.78
2017-03-04T05:55:58.400Z,52.78
2017-03-04T05:57:07.327Z,52.81
2017-03-04T05:58:16.256Z,52.69
2017-03-04T05:59:25.165Z,52.81
2017-03-04T06:00:34.077Z,52.78
2017-03-04T06:01:42.973Z,52.42
2017-03-04T06:02:51.876Z,52.78
2017-03-04T06:04:00.804Z,52.87
2017-03-04T06:05:09.705Z,53.07
2017-03-04T06:06:18.586Z,53.64
2017-03-04T06:07:27.486Z,52.87
2017-03-04T06:08:36.391Z,52.59
2017-03-04T06:09:45.284Z,52.52
2017-03-04T06:10:54.165Z,52.62
2017-03-04T06:12:03.455Z,52.59
2017-03-04T06:13:12.380Z,52.78
2017-03-04T06:14:21.281Z,52.5
2017-03-04T06:15:30.183Z,52.78
2017-03-04T06:16:39.090Z,53.16
2017-03-04T06:17:48.000Z,53.07
2017-03-04T06:18:56.894Z,53.16
2017-03-04T06:20:05.779Z,52.97
2017-03-04T06:21:14.655Z,53.07
2017-03-04T06:22:23.539Z,52.97
2017-03-04T06:23:32.435Z,52.69
2017-03-04T06:24:41.481Z,52.87
2017-03-04T06:25:50.391Z,52.69
2017-03-04T06:26:59.297Z,53
2017-03-04T06:28:08.183Z,52.78
2017-03-04T06:29:17.073Z,52.78
2017-03-04T06:30:25.963Z,52.87
2017-03-04T06:31:34.855Z,53.07
2017-03-04T06:32:43.813Z,52.71
2017-03-04T06:33:54.358Z,53
2017-03-04T06:35:03.426Z,52.62
2017-03-04T06:36:12.507Z,52.87
2017-03-04T06:37:21.900Z,52.71
2017-03-04T06:38:30.856Z,52.59
2017-03-04T06:39:39.738Z,52.91
2017-03-04T06:40:48.705Z,52.97
2017-03-04T06:41:57.992Z,52.78
2017-03-04T06:43:06.902Z,52.97
2017-03-04T06:44:16.194Z,53.16
2017-03-04T06:45:25.076Z,52.97
2017-03-04T06:46:34.061Z,52.91
2017-03-04T06:47:42.958Z,53
2017-03-04T06:48:51.955Z,52.78
2017-03-04T06:50:01.701Z,52.91
2017-03-04T06:51:11.011Z,52.87
2017-03-04T06:52:20.319Z,52.81
2017-03-04T06:53:29.258Z,52.91
2017-03-04T06:54:38.453Z,52.62
2017-03-04T06:55:48.245Z,52.71
2017-03-04T06:56:57.582Z,53
2017-03-04T06:58:06.475Z,53.09
2017-03-04T06:59:15.914Z,52.87
2017-03-04T07:00:24.891Z,52.87
2017-03-04T07:01:34.302Z,53.07
2017-03-04T07:02:43.679Z,53.55
2017-03-04T07:03:53.073Z,52.97
2017-03-04T07:05:01.962Z,52.87
2017-03-04T07:06:10.999Z,52.78
2017-03-04T07:07:19.884Z,52.91
2017-03-04T07:08:28.766Z,53.16
2017-03-04T07:09:37.711Z,52.97
2017-03-04T07:10:46.746Z,52.78
2017-03-04T07:11:55.962Z,53.07
2017-03-04T07:13:04.839Z,52.87
2017-03-04T07:14:13.734Z,52.87
2017-03-04T07:15:22.640Z,52.87
2017-03-04T07:16:31.544Z,53.55
2017-03-04T07:17:40.426Z,53.45
2017-03-04T07:18:49.320Z,53.45
2017-03-04T07:19:58.227Z,53.55
2017-03-04T07:21:07.175Z,53.58
2017-03-04T07:22:16.172Z,52.91
2017-03-04T07:23:26.027Z,52.97
2017-03-04T07:24:34.973Z,53.45
2017-03-04T07:25:44.187Z,53.36
2017-03-04T07:26:53.479Z,53.55
2017-03-04T07:28:02.755Z,53.26
2017-03-04T07:29:11.669Z,53.45
2017-03-04T07:30:20.547Z,53.64
2017-03-04T07:31:29.460Z,53.83
2017-03-04T07:32:38.360Z,53.36
2017-03-04T07:33:47.267Z,53.36
2017-03-04T07:34:56.172Z,53.36
2017-03-04T07:36:05.054Z,53
2017-03-04T07:37:13.950Z,53.45
2017-03-04T07:38:22.847Z,53.36
2017-03-04T07:39:31.733Z,53.28
2017-03-04T07:40:40.637Z,53.36
2017-03-04T07:41:49.555Z,53.55
2017-03-04T07:42:58.468Z,52.97
2017-03-04T07:44:07.362Z,53
2017-03-04T07:45:16.247Z,53.38
2017-03-04T07:46:25.124Z,53.55
2017-03-04T07:47:34.023Z,53.48
2017-03-04T07:48:42.934Z,53.26
2017-03-04T07:49:51.829Z,53.45
2017-03-04T07:51:00.716Z,53.45
2017-03-04T07:52:09.620Z,53.38
2017-03-04T07:53:18.502Z,53.58
2017-03-04T07:54:27.779Z,53.48
2017-03-04T07:55:36.666Z,53.48
2017-03-04T07:56:45.577Z,53.45
2017-03-04T07:57:54.457Z,53.58
2017-03-04T07:59:03.350Z,53.36
2017-03-04T08:00:12.244Z,53.38
2017-03-04T08:01:21.164Z,53.28
2017-03-04T08:02:30.077Z,53.19
2017-03-04T08:03:39.006Z,53.38
2017-03-04T08:04:47.904Z,53.48
2017-03-04T08:05:56.827Z,53.77
2017-03-04T08:07:05.728Z,53.45
2017-03-04T08:08:14.635Z,53.93
2017-03-04T08:09:23.543Z,53.67
2017-03-04T08:10:32.454Z,53.77
2017-03-04T08:11:41.369Z,53.48
2017-03-04T08:12:50.246Z,53.77
2017-03-04T08:13:59.143Z,53.67
2017-03-04T08:15:08.018Z,53.55
2017-03-04T08:16:16.934Z,53.86
2017-03-04T08:17:26.233Z,53.58
2017-03-04T08:18:35.155Z,53.74
2017-03-04T08:19:44.043Z,53.77
2017-03-04T08:20:52.936Z,53.67
2017-03-04T08:22:01.840Z,53.96
2017-03-04T08:23:10.744Z,53.86
2017-03-04T08:24:19.633Z,54.05
2017-03-04T08:25:28.510Z,53.67
2017-03-04T08:26:37.384Z,53.86
2017-03-04T08:27:46.267Z,54.15
2017-03-04T08:28:55.153Z,53.96
2017-03-04T08:30:04.064Z,53.67
2017-03-04T08:31:12.967Z,53.96
2017-03-04T08:32:21.850Z,54.15
2017-03-04T08:33:30.743Z,54.15
2017-03-04T08:34:39.642Z,54.15
2017-03-04T08:35:48.520Z,54.05
2017-03-04T08:36:57.424Z,54.24
2017-03-04T08:38:06.332Z,54.05
2017-03-04T08:39:15.236Z,53.96
2017-03-04T08:40:24.154Z,54.05
2017-03-04T08:41:33.042Z,54.24
2017-03-04T08:42:41.936Z,54.05
2017-03-04T08:43:50.822Z,54.05
2017-03-04T08:44:59.707Z,54.24
2017-03-04T08:46:08.584Z,54.34
2017-03-04T08:47:17.497Z,54.15
2017-03-04T08:48:26.387Z,54.24
2017-03-04T08:49:35.671Z,54.15
2017-03-04T08:50:44.557Z,54.44
2017-03-04T08:51:53.479Z,54.44
2017-03-04T08:53:02.380Z,54.34
2017-03-04T08:54:11.652Z,54.34
2017-03-04T08:55:20.542Z,54.34
2017-03-04T08:56:29.464Z,54.34
2017-03-04T08:57:38.367Z,54.34
2017-03-04T08:58:47.258Z,54.44
2017-03-04T08:59:56.165Z,54.44
2017-03-04T09:01:05.089Z,54.34
2017-03-04T09:02:13.999Z,54.24
2017-03-04T09:03:22.921Z,54.24
2017-03-04T09:04:31.815Z,54.24
2017-03-04T09:05:40.737Z,54.53
2017-03-04T09:06:49.626Z,54.34
2017-03-04T09:07:58.547Z,54.24
2017-03-04T09:09:07.478Z,54.05
2017-03-04T09:10:16.354Z,54.15
2017-03-04T09:11:25.247Z,54.34
2017-03-04T09:12:34.143Z,54.15
2017-03-04T09:13:43.093Z,55.11
2017-03-04T09:14:51.971Z,58.97
2017-03-04T09:16:00.913Z,67.6
2017-03-04T09:17:09.825Z,71.25
2017-03-04T09:18:18.754Z,71.25
2017-03-04T09:19:27.645Z,72.59
2017-03-04T09:20:36.540Z,73.77
2017-03-04T09:21:45.454Z,73.87
2017-03-04T09:22:54.339Z,73.2
2017-03-04T09:24:03.635Z,73.87
2017-03-04T09:25:12.509Z,74.35
2017-03-04T09:26:21.379Z,74.16
2017-03-04T09:27:30.277Z,74.83
2017-03-04T09:28:39.166Z,75.02
2017-03-04T09:29:48.073Z,74.83
2017-03-04T09:30:56.970Z,74.93
2017-03-04T09:32:05.901Z,75.45
2017-03-04T09:33:14.808Z,75.5
2017-03-04T09:34:23.690Z,75.35
2017-03-04T09:35:32.584Z,74.77
2017-03-04T09:36:41.507Z,76.02
2017-03-04T09:37:50.413Z,74.48
2017-03-04T09:38:59.306Z,74.77
2017-03-04T09:40:08.206Z,74.58
2017-03-04T09:41:17.092Z,74.58
2017-03-04T09:42:25.991Z,74.19
2017-03-04T09:43:34.883Z,74.58
2017-03-04T09:44:44.191Z,73.52
2017-03-04T09:45:53.072Z,74.1
2017-03-04T09:47:02.917Z,73.56
2017-03-04T09:48:11.808Z,73.85
2017-03-04T09:49:20.721Z,74.52
2017-03-04T09:50:30.861Z,77.21
2017-03-04T09:51:39.763Z,77.31
2017-03-04T09:52:48.640Z,73.46
2017-03-04T09:53:58.203Z,75.67
2017-03-04T09:55:09.893Z,76.86
2017-03-04T09:56:19.319Z,76.09
2017-03-04T09:57:28.231Z,77.63
2017-03-04T09:58:37.145Z,76.48
2017-03-04T09:59:46.060Z,77.06
2017-03-04T10:00:55.146Z,76.48
2017-03-04T10:02:04.094Z,77.19
2017-03-04T10:03:13.496Z,76.61
2017-03-04T10:04:22.392Z,74.88
2017-03-04T10:05:31.274Z,74.88
2017-03-04T10:06:40.166Z,75.65
2017-03-04T10:07:49.056Z,75.56
2017-03-04T10:08:57.941Z,75.94
2017-03-04T10:10:06.834Z,75.46
2017-03-04T10:11:15.723Z,75.56
2017-03-04T10:12:24.603Z,74.88
2017-03-04T10:13:33.499Z,74.79
2017-03-04T10:14:42.431Z,74.88
2017-03-04T10:15:51.317Z,74.5
2017-03-04T10:17:00.247Z,75.37
2017-03-04T10:18:09.161Z,75.46
2017-03-04T10:19:18.085Z,76.14
2017-03-04T10:20:27.075Z,76.04
2017-03-04T10:21:35.960Z,74.98
2017-03-04T10:22:44.869Z,73.96
2017-03-04T10:23:53.751Z,73.06
2017-03-04T10:25:02.647Z,74.4
2017-03-04T10:26:11.545Z,75.07
2017-03-04T10:27:20.426Z,75.21
2017-03-04T10:28:29.325Z,74.44
2017-03-04T10:29:38.234Z,73.86
2017-03-04T10:30:47.152Z,74.54
2017-03-04T10:31:56.059Z,73.57
2017-03-04T10:33:05.428Z,74.73
2017-03-04T10:34:15.196Z,75.11
2017-03-04T10:35:24.084Z,75.02
2017-03-04T10:36:33.018Z,75.79
2017-03-04T10:37:41.905Z,75.98
2017-03-04T10:38:50.802Z,75.98
2017-03-04T10:40:00.095Z,75.59
2017-03-04T10:41:09.382Z,75.59
2017-03-04T10:42:18.277Z,75.79
2017-03-04T10:43:27.173Z,76.65
2017-03-04T10:44:36.053Z,75.88
2017-03-04T10:45:44.945Z,76.07
2017-03-04T10:46:53.865Z,75.59
2017-03-04T10:48:02.789Z,75.05
2017-03-04T10:49:11.671Z,74.09
2017-03-04T10:50:20.562Z,73.99
2017-03-04T10:51:29.463Z,74.38
2017-03-04T10:52:38.358Z,75.05
2017-03-04T10:53:47.274Z,75.54
2017-03-04T10:54:56.464Z,74.86
2017-03-04T10:56:05.777Z,74.38
2017-03-04T10:57:14.663Z,73.71
2017-03-04T10:58:23.961Z,73.74
2017-03-04T10:59:32.859Z,73.16
2017-03-04T11:00:41.775Z,72.11
2017-03-04T11:01:50.671Z,71.72
2017-03-04T11:02:59.563Z,71.24
2017-03-04T11:04:08.455Z,71.04
2017-03-04T11:05:17.355Z,70.47
2017-03-04T11:06:26.254Z,69.99
2017-03-04T11:07:35.155Z,69.7
2017-03-04T11:08:44.036Z,69.31
2017-03-04T11:09:52.935Z,68.54
2017-03-04T11:11:02.231Z,68.26
2017-03-04T11:12:11.155Z,67.87
2017-03-04T11:13:20.045Z,67.29
2017-03-04T11:14:28.936Z,67.1
2017-03-04T11:15:37.879Z,66.33
2017-03-04T11:16:46.823Z,65.94
2017-03-04T11:17:55.710Z,66.14
2017-03-04T11:19:04.604Z,65.66
2017-03-04T11:20:13.505Z,65.66
2017-03-04T11:21:22.419Z,65.08
2017-03-04T11:22:31.314Z,65.46
2017-03-04T11:23:40.205Z,64.4
2017-03-04T11:24:49.132Z,64.69
2017-03-04T11:25:58.038Z,64.59
2017-03-04T11:27:06.929Z,64.21
2017-03-04T11:28:15.818Z,64.31
2017-03-04T11:29:24.748Z,63.73
2017-03-04T11:30:33.658Z,63.06
2017-03-04T11:31:42.542Z,63.15
2017-03-04T11:32:51.824Z,62.41
2017-03-04T11:34:00.734Z,61.71
2017-03-04T11:35:09.635Z,62
2017-03-04T11:36:18.519Z,61.52
2017-03-04T11:37:27.418Z,61.9
2017-03-04T11:38:36.329Z,61.35
2017-03-04T11:39:45.208Z,60.84
2017-03-04T11:40:54.106Z,61.42
2017-03-04T11:42:03.399Z,61.8
2017-03-04T11:43:12.290Z,60.84
2017-03-04T11:44:21.594Z,60.55
2017-03-04T11:45:30.482Z,61.52
2017-03-04T11:46:39.384Z,61.52
2017-03-04T11:47:48.293Z,61.32
2017-03-04T11:48:57.179Z,60.75
2017-03-04T11:50:06.123Z,60.84
2017-03-04T11:51:15.027Z,60.65
2017-03-04T11:52:23.947Z,60.27
2017-03-04T11:53:32.825Z,60.75
2017-03-04T11:54:41.706Z,60.27
2017-03-04T11:55:50.602Z,60.46
2017-03-04T11:56:59.534Z,60.55
2017-03-04T11:58:08.852Z,60.94
2017-03-04T11:59:17.756Z,60.49
2017-03-04T12:00:26.664Z,60.84
2017-03-04T12:01:35.546Z,60.68
2017-03-04T12:02:44.833Z,60.75
2017-03-04T12:03:53.730Z,60.84
2017-03-04T12:05:02.616Z,61.13
2017-03-04T12:06:11.504Z,61.04
2017-03-04T12:07:20.399Z,60.97
2017-03-04T12:08:29.323Z,61.22
2017-03-04T12:09:38.248Z,61.04
2017-03-04T12:10:47.159Z,61.13
2017-03-04T12:11:56.075Z,61.32
2017-03-04T12:13:04.959Z,61.55
2017-03-04T12:14:14.253Z,61.45
2017-03-04T12:15:23.140Z,61.42
2017-03-04T12:16:32.041Z,60.77
2017-03-04T12:17:40.940Z,60.87
2017-03-04T12:18:49.834Z,60.97
2017-03-04T12:19:58.724Z,60.58
2017-03-04T12:21:07.649Z,60.58
2017-03-04T12:22:16.544Z,60.77
2017-03-04T12:23:25.461Z,60.68
2017-03-04T12:24:34.383Z,60.68
2017-03-04T12:25:43.292Z,60.3
2017-03-04T12:26:52.184Z,60.39
2017-03-04T12:28:01.109Z,60.58
2017-03-04T12:29:10.019Z,60.49
2017-03-04T12:30:18.930Z,60.2
2017-03-04T12:31:27.856Z,60.49
2017-03-04T12:32:36.746Z,60.58
2017-03-04T12:33:46.029Z,60.2
2017-03-04T12:34:54.932Z,60.58
2017-03-04T12:36:03.815Z,60.39
2017-03-04T12:37:12.720Z,60.49
2017-03-04T12:38:21.625Z,60.58
2017-03-04T12:39:30.523Z,60.49
2017-03-04T12:40:39.416Z,60.2
2017-03-04T12:41:48.357Z,60.2
2017-03-04T12:42:57.269Z,60.39
2017-03-04T12:44:06.589Z,60.3
2017-03-04T12:45:15.472Z,60.52
2017-03-04T12:46:24.354Z,60.39
2017-03-04T12:47:33.243Z,60.42
2017-03-04T12:48:42.122Z,60.42
2017-03-04T12:49:51.008Z,60.52
2017-03-04T12:50:59.892Z,60
2017-03-04T12:52:08.779Z,59.55
2017-03-04T12:53:17.679Z,59.55
2017-03-04T12:54:26.585Z,60.13
2017-03-04T12:55:35.495Z,60.13
2017-03-04T12:56:44.379Z,59.84
2017-03-04T12:57:53.276Z,60.03
2017-03-04T12:59:02.587Z,60.13
2017-03-04T13:00:11.508Z,59.65
2017-03-04T13:01:20.796Z,59.75
2017-03-04T13:02:29.695Z,59.75
2017-03-04T13:03:38.600Z,60.03
2017-03-04T13:04:47.513Z,59.75
2017-03-04T13:05:56.442Z,59.55
2017-03-04T13:07:05.348Z,59.65
2017-03-04T13:08:14.254Z,59.75
2017-03-04T13:09:23.139Z,59.84
2017-03-04T13:10:32.057Z,59.36
2017-03-04T13:11:40.961Z,59.17
2017-03-04T13:12:49.841Z,59.27
2017-03-04T13:13:58.834Z,59.27
2017-03-04T13:15:07.724Z,59.27
2017-03-04T13:16:16.608Z,59.17
2017-03-04T13:17:25.509Z,59.45
2017-03-04T13:18:34.421Z,59.27
2017-03-04T13:19:43.308Z,59.27
2017-03-04T13:20:52.607Z,59.17
2017-03-04T13:22:01.548Z,59.36
2017-03-04T13:23:10.453Z,59.65
2017-03-04T13:24:19.337Z,59.36
2017-03-04T13:25:28.238Z,59.17
2017-03-04T13:26:37.144Z,59.75
2017-03-04T13:27:46.033Z,59.55
2017-03-04T13:28:54.932Z,59.07
2017-03-04T13:30:03.850Z,59.27
2017-03-04T13:31:12.759Z,59.3
2017-03-04T13:32:21.652Z,58.91
2017-03-04T13:33:30.551Z,59.3
2017-03-04T13:34:39.456Z,59.48
2017-03-04T13:35:48.371Z,59.3
2017-03-04T13:36:57.268Z,59.2
2017-03-04T13:38:06.159Z,59.2
2017-03-04T13:39:15.463Z,59
2017-03-04T13:40:24.348Z,59.39
2017-03-04T13:41:33.263Z,59.48
2017-03-04T13:42:42.177Z,59.2
2017-03-04T13:43:51.065Z,59.2
2017-03-04T13:45:00.354Z,59.39
2017-03-04T13:46:10.071Z,59.48
2017-03-04T13:47:18.976Z,59.3
2017-03-04T13:48:27.886Z,59.48
2017-03-04T13:49:36.798Z,59.2
2017-03-04T13:50:45.719Z,59.39
2017-03-04T13:51:54.606Z,59.3
2017-03-04T13:53:03.503Z,58.91
2017-03-04T13:54:12.790Z,59
2017-03-04T13:55:22.089Z,58.42
2017-03-04T13:56:30.986Z,58.33
2017-03-04T13:57:39.879Z,58.72
2017-03-04T13:58:48.800Z,57.07
2017-03-04T13:59:57.702Z,57.07
2017-03-04T14:01:06.629Z,57.46
2017-03-04T14:02:15.512Z,57.75
2017-03-04T14:03:24.407Z,57.75
2017-03-04T14:04:33.331Z,57.85
2017-03-04T14:05:42.288Z,58.62
2017-03-04T14:06:51.181Z,59
2017-03-04T14:08:00.082Z,58.91
2017-03-04T14:09:08.992Z,58.72
2017-03-04T14:10:18.278Z,58.52
2017-03-04T14:11:27.176Z,58.72
2017-03-04T14:12:36.478Z,58.62
2017-03-04T14:13:45.373Z,58.72
2017-03-04T14:14:54.311Z,58.52
2017-03-04T14:16:03.246Z,58.81
2017-03-04T14:17:12.164Z,59.13
2017-03-04T14:18:21.050Z,59
2017-03-04T14:19:29.948Z,58.52
2017-03-04T14:20:38.852Z,59
2017-03-04T14:21:48.131Z,58.04
2017-03-04T14:22:57.027Z,57.94
2017-03-04T14:24:06.324Z,57.94
2017-03-04T14:25:15.200Z,57.87
2017-03-04T14:26:24.106Z,58.65
2017-03-04T14:27:33.002Z,58.26
2017-03-04T14:28:41.901Z,57.87
2017-03-04T14:29:50.809Z,57.2
2017-03-04T14:30:59.691Z,57.68
2017-03-04T14:32:09.400Z,57.68
2017-03-04T14:33:18.289Z,57.68
2017-03-04T14:34:27.186Z,57.01
2017-03-04T14:35:36.108Z,57.2
2017-03-04T14:36:44.998Z,57.39
2017-03-04T14:37:53.910Z,56.72
2017-03-04T14:39:02.812Z,57.29
2017-03-04T14:40:11.746Z,57.29
2017-03-04T14:41:20.652Z,57.59
2017-03-04T14:42:29.535Z,56.91
2017-03-04T14:43:38.419Z,56.24
2017-03-04T14:44:47.303Z,57.01
2017-03-04T14:45:56.196Z,57.01
2017-03-04T14:47:05.104Z,56.91
2017-03-04T14:48:14.028Z,57.1
2017-03-04T14:49:22.954Z,56.81
2017-03-04T14:50:31.834Z,56.33
2017-03-04T14:51:40.713Z,56.43